Bluff Point, Indiana
Current Conditions -  °F | °C
As of 8:53 AM on Saturday 25 Oct 2014 (Local Time) from KMIE Reporting Station
Overcast Overcast  
Wind Chill: 57°   Ceiling: 2300
Heat Index: 57°   Visibility: 10mi
Dew Point: 51°   Wind: 10mph
Humidity: 81%   Direction: 240°WSW
Pressure: 29.95"   Gusts: NA
Location:  40.4312°N, 85.0058°W
Report Text: KMIE 251253Z 24009KT 10SM OVC023 14/11 A2995 RMK AO2 SLP138 T01390106
Loading
Personal Weather Stations






























Interactive Weather Map
Tropical Storm Tracking
New forecast layout! Learn more

10-Day Weather Forecast

Advertisements
Track Severe Weather on mobile